KRBG

Details ICAO KRBG
Name Roseburg Rgnl
Region United States
Timezone America/Los_Angeles (UTC-8.0)
Plans Departing 6
Arriving 12
Stats Elevation 529 ft / 161 m (AMSL)
Location 43.238783° -123.355860°
Runways 1
Magnetic Variation 14.871° E
Sunrise 2017-12-12 15:37:59 UTC / 2017-12-12 07:37:59 Local
Sunset 2017-12-13 00:39:30 UTC / 2017-12-12 16:39:30 Local
Advertisement - Login to hide

Runways

ID Width Length Bearing (true) Bearing (mag) Surface Threshold Offset Overrun Length
16 100 ft / 30 m 4,606 ft / 1,404 m 179.95° 165.08° Asphalt 700 ft / 213 m 0 ft / 0 m
34 100 ft / 30 m 4,606 ft / 1,404 m 359.95° 345.08° Asphalt 371 ft / 113 m 0 ft / 0 m

Map

Weather


0- 5 10 15 20 25 30 35+ Temperature / ° C

Clouds and Precipitation
Forecast for 2017-12-13 06:00 UTC. Updated 14 minutes ago

Ground ~20,000 ft ~40,000 ft Winds

METAR

KRBG 130053Z AUTO 00000KT 1/4SM FG VV002 02/02 A3036 RMK AO2 SLP287 T00170017

TAF

TAF KRBG 122345Z 1300/1324 VRB03KT 1/2SM FG BKN002 FM131900 VRB03KT 5SM BR BKN002

Frequencies

Recorded 135.47 MHz ASOS
Unicom 122.80 MHz CTAF/UNICOM
Warning: Do not use this data for real-world aviation or navigation. No guarantee of current accuracy is given.